sensor_id;sensor_type;location;lat;lon;timestamp;P1;durP1;ratioP1;P2;durP2;ratioP2
35969;SDS011;22448;51.298;6.430;2022-07-21T00:00:22;18.60;;;10.73;;
35969;SDS011;22448;51.298;6.430;2022-07-21T00:02:52;12.18;;;10.40;;
35969;SDS011;22448;51.298;6.430;2022-07-21T00:05:20;11.95;;;10.05;;
35969;SDS011;22448;51.298;6.430;2022-07-21T00:07:47;15.05;;;9.98;;
35969;SDS011;22448;51.298;6.430;2022-07-21T00:10:15;11.35;;;10.15;;
35969;SDS011;22448;51.298;6.430;2022-07-21T00:12:44;15.70;;;10.10;;
35969;SDS011;22448;51.298;6.430;2022-07-21T00:15:11;15.30;;;10.60;;
35969;SDS011;22448;51.298;6.430;2022-07-21T00:17:40;15.80;;;11.00;;
35969;SDS011;22448;51.298;6.430;2022-07-21T00:20:08;13.90;;;10.93;;
35969;SDS011;22448;51.298;6.430;2022-07-21T00:22:36;13.27;;;10.45;;
35969;SDS011;22448;51.298;6.430;2022-07-21T00:25:04;16.77;;;12.30;;
35969;SDS011;22448;51.298;6.430;2022-07-21T00:27:32;14.45;;;12.05;;
35969;SDS011;22448;51.298;6.430;2022-07-21T00:30:00;14.50;;;12.02;;
35969;SDS011;22448;51.298;6.430;2022-07-21T00:32:27;15.48;;;11.73;;
35969;SDS011;22448;51.298;6.430;2022-07-21T00:35:02;16.80;;;12.05;;
35969;SDS011;22448;51.298;6.430;2022-07-21T00:37:29;15.13;;;11.95;;
35969;SDS011;22448;51.298;6.430;2022-07-21T00:39:57;15.60;;;12.43;;
35969;SDS011;22448;51.298;6.430;2022-07-21T00:42:29;15.18;;;11.75;;
35969;SDS011;22448;51.298;6.430;2022-07-21T00:44:58;17.42;;;12.52;;
35969;SDS011;22448;51.298;6.430;2022-07-21T00:47:25;15.77;;;12.40;;
35969;SDS011;22448;51.298;6.430;2022-07-21T00:49:55;14.95;;;11.95;;
35969;SDS011;22448;51.298;6.430;2022-07-21T00:52:23;14.60;;;11.60;;
35969;SDS011;22448;51.298;6.430;2022-07-21T00:54:51;14.88;;;11.95;;
35969;SDS011;22448;51.298;6.430;2022-07-21T00:57:18;18.63;;;12.68;;
35969;SDS011;22448;51.298;6.430;2022-07-21T00:59:45;19.98;;;12.20;;
35969;SDS011;22448;51.298;6.430;2022-07-21T01:02:13;16.08;;;11.85;;
35969;SDS011;22448;51.298;6.430;2022-07-21T01:04:40;15.77;;;11.57;;
35969;SDS011;22448;51.298;6.430;2022-07-21T01:07:08;14.70;;;12.45;;
35969;SDS011;22448;51.298;6.430;2022-07-21T01:09:35;16.63;;;12.27;;
35969;SDS011;22448;51.298;6.430;2022-07-21T01:12:02;12.48;;;11.13;;
35969;SDS011;22448;51.298;6.430;2022-07-21T01:14:30;12.75;;;11.18;;
35969;SDS011;22448;51.298;6.430;2022-07-21T01:16:58;14.98;;;11.65;;
35969;SDS011;22448;51.298;6.430;2022-07-21T01:19:28;14.30;;;10.70;;
35969;SDS011;22448;51.298;6.430;2022-07-21T01:21:55;16.08;;;12.85;;
35969;SDS011;22448;51.298;6.430;2022-07-21T01:24:22;14.75;;;12.18;;
35969;SDS011;22448;51.298;6.430;2022-07-21T01:26:50;15.82;;;11.88;;
35969;SDS011;22448;51.298;6.430;2022-07-21T01:29:19;15.10;;;11.73;;
35969;SDS011;22448;51.298;6.430;2022-07-21T01:31:47;13.48;;;11.73;;
35969;SDS011;22448;51.298;6.430;2022-07-21T01:34:14;18.70;;;12.32;;
35969;SDS011;22448;51.298;6.430;2022-07-21T01:36:44;16.15;;;12.80;;
35969;SDS011;22448;51.298;6.430;2022-07-21T01:39:11;14.02;;;12.32;;
35969;SDS011;22448;51.298;6.430;2022-07-21T01:41:58;15.90;;;12.48;;
35969;SDS011;22448;51.298;6.430;2022-07-21T01:44:24;15.07;;;12.18;;
35969;SDS011;22448;51.298;6.430;2022-07-21T01:46:52;15.23;;;12.32;;
35969;SDS011;22448;51.298;6.430;2022-07-21T01:49:19;18.45;;;12.15;;
35969;SDS011;22448;51.298;6.430;2022-07-21T01:51:47;15.30;;;12.77;;
35969;SDS011;22448;51.298;6.430;2022-07-21T01:54:16;16.85;;;12.10;;
35969;SDS011;22448;51.298;6.430;2022-07-21T01:56:49;14.95;;;10.95;;
35969;SDS011;22448;51.298;6.430;2022-07-21T01:59:16;18.15;;;12.70;;
35969;SDS011;22448;51.298;6.430;2022-07-21T02:01:45;15.38;;;13.00;;
35969;SDS011;22448;51.298;6.430;2022-07-21T02:04:12;18.80;;;13.20;;
35969;SDS011;22448;51.298;6.430;2022-07-21T02:06:40;16.52;;;14.20;;
35969;SDS011;22448;51.298;6.430;2022-07-21T02:09:07;17.20;;;14.20;;
35969;SDS011;22448;51.298;6.430;2022-07-21T02:11:35;17.08;;;14.30;;
35969;SDS011;22448;51.298;6.430;2022-07-21T02:14:02;16.92;;;13.68;;
35969;SDS011;22448;51.298;6.430;2022-07-21T02:16:29;15.13;;;13.40;;
35969;SDS011;22448;51.298;6.430;2022-07-21T02:18:57;15.85;;;13.27;;
35969;SDS011;22448;51.298;6.430;2022-07-21T02:21:24;14.80;;;12.68;;
35969;SDS011;22448;51.298;6.430;2022-07-21T02:23:51;17.63;;;13.35;;
35969;SDS011;22448;51.298;6.430;2022-07-21T02:26:19;17.10;;;13.38;;
35969;SDS011;22448;51.298;6.430;2022-07-21T02:28:46;15.82;;;12.70;;
35969;SDS011;22448;51.298;6.430;2022-07-21T02:31:13;16.05;;;11.93;;
35969;SDS011;22448;51.298;6.430;2022-07-21T02:33:40;16.25;;;12.57;;
35969;SDS011;22448;51.298;6.430;2022-07-21T02:36:07;17.33;;;13.27;;
35969;SDS011;22448;51.298;6.430;2022-07-21T02:38:35;15.52;;;13.25;;
35969;SDS011;22448;51.298;6.430;2022-07-21T02:41:02;19.38;;;13.50;;
35969;SDS011;22448;51.298;6.430;2022-07-21T02:43:29;16.83;;;12.20;;
35969;SDS011;22448;51.298;6.430;2022-07-21T02:45:57;18.85;;;12.88;;
35969;SDS011;22448;51.298;6.430;2022-07-21T02:48:23;17.60;;;13.40;;
35969;SDS011;22448;51.298;6.430;2022-07-21T02:50:50;17.02;;;12.57;;
35969;SDS011;22448;51.298;6.430;2022-07-21T02:53:18;20.23;;;13.40;;
35969;SDS011;22448;51.298;6.430;2022-07-21T02:55:46;15.70;;;12.77;;
35969;SDS011;22448;51.298;6.430;2022-07-21T02:58:18;15.98;;;13.25;;
35969;SDS011;22448;51.298;6.430;2022-07-21T03:00:54;18.65;;;14.07;;
35969;SDS011;22448;51.298;6.430;2022-07-21T03:03:23;16.30;;;13.25;;
35969;SDS011;22448;51.298;6.430;2022-07-21T03:05:52;22.02;;;13.63;;
35969;SDS011;22448;51.298;6.430;2022-07-21T03:08:20;19.52;;;14.70;;
35969;SDS011;22448;51.298;6.430;2022-07-21T03:10:48;18.83;;;14.13;;
35969;SDS011;22448;51.298;6.430;2022-07-21T03:13:15;17.50;;;13.80;;
35969;SDS011;22448;51.298;6.430;2022-07-21T03:15:42;17.90;;;14.70;;
35969;SDS011;22448;51.298;6.430;2022-07-21T03:18:09;23.63;;;14.38;;
35969;SDS011;22448;51.298;6.430;2022-07-21T03:20:37;21.92;;;16.67;;
35969;SDS011;22448;51.298;6.430;2022-07-21T03:23:06;19.95;;;15.48;;
35969;SDS011;22448;51.298;6.430;2022-07-21T03:25:33;21.27;;;16.20;;
35969;SDS011;22448;51.298;6.430;2022-07-21T03:28:00;21.48;;;15.60;;
35969;SDS011;22448;51.298;6.430;2022-07-21T03:30:28;20.50;;;15.77;;
35969;SDS011;22448;51.298;6.430;2022-07-21T03:32:56;22.33;;;15.73;;
35969;SDS011;22448;51.298;6.430;2022-07-21T03:35:24;28.85;;;16.13;;
35969;SDS011;22448;51.298;6.430;2022-07-21T03:37:55;21.95;;;16.02;;
35969;SDS011;22448;51.298;6.430;2022-07-21T03:42:55;19.20;;;15.55;;
35969;SDS011;22448;51.298;6.430;2022-07-21T03:45:25;21.52;;;16.85;;
35969;SDS011;22448;51.298;6.430;2022-07-21T03:47:52;22.67;;;16.17;;
35969;SDS011;22448;51.298;6.430;2022-07-21T03:50:19;21.50;;;16.25;;
35969;SDS011;22448;51.298;6.430;2022-07-21T03:52:47;21.65;;;16.15;;
35969;SDS011;22448;51.298;6.430;2022-07-21T03:55:14;26.50;;;16.65;;
35969;SDS011;22448;51.298;6.430;2022-07-21T03:57:44;22.30;;;15.77;;
35969;SDS011;22448;51.298;6.430;2022-07-21T04:00:19;22.05;;;16.08;;
35969;SDS011;22448;51.298;6.430;2022-07-21T04:02:48;22.33;;;17.70;;
35969;SDS011;22448;51.298;6.430;2022-07-21T04:05:16;23.80;;;17.05;;
35969;SDS011;22448;51.298;6.430;2022-07-21T04:07:44;23.15;;;16.92;;
35969;SDS011;22448;51.298;6.430;2022-07-21T04:10:14;21.92;;;17.17;;
35969;SDS011;22448;51.298;6.430;2022-07-21T04:12:43;24.13;;;18.25;;
35969;SDS011;22448;51.298;6.430;2022-07-21T04:15:10;24.92;;;17.75;;
35969;SDS011;22448;51.298;6.430;2022-07-21T04:17:38;28.35;;;18.83;;
35969;SDS011;22448;51.298;6.430;2022-07-21T04:20:06;23.05;;;17.67;;
35969;SDS011;22448;51.298;6.430;2022-07-21T04:22:36;27.15;;;17.15;;
35969;SDS011;22448;51.298;6.430;2022-07-21T04:25:04;22.15;;;18.20;;
35969;SDS011;22448;51.298;6.430;2022-07-21T04:27:33;20.90;;;15.80;;
35969;SDS011;22448;51.298;6.430;2022-07-21T04:30:02;23.10;;;16.92;;
35969;SDS011;22448;51.298;6.430;2022-07-21T04:32:31;21.88;;;16.98;;
35969;SDS011;22448;51.298;6.430;2022-07-21T04:34:58;20.02;;;16.67;;
35969;SDS011;22448;51.298;6.430;2022-07-21T04:37:25;22.13;;;16.48;;
35969;SDS011;22448;51.298;6.430;2022-07-21T04:39:53;29.48;;;17.00;;
35969;SDS011;22448;51.298;6.430;2022-07-21T04:42:20;20.80;;;16.75;;
35969;SDS011;22448;51.298;6.430;2022-07-21T04:44:49;22.70;;;16.27;;
35969;SDS011;22448;51.298;6.430;2022-07-21T04:47:17;23.75;;;16.35;;
35969;SDS011;22448;51.298;6.430;2022-07-21T04:49:44;25.27;;;17.65;;
35969;SDS011;22448;51.298;6.430;2022-07-21T04:52:11;21.88;;;17.10;;
35969;SDS011;22448;51.298;6.430;2022-07-21T04:54:38;24.02;;;16.77;;
35969;SDS011;22448;51.298;6.430;2022-07-21T04:57:06;22.85;;;17.27;;
35969;SDS011;22448;51.298;6.430;2022-07-21T04:59:33;22.40;;;15.88;;
35969;SDS011;22448;51.298;6.430;2022-07-21T05:02:02;22.85;;;15.88;;
35969;SDS011;22448;51.298;6.430;2022-07-21T05:04:30;22.23;;;15.77;;
35969;SDS011;22448;51.298;6.430;2022-07-21T05:06:57;24.05;;;16.27;;
35969;SDS011;22448;51.298;6.430;2022-07-21T05:09:25;22.10;;;15.70;;
35969;SDS011;22448;51.298;6.430;2022-07-21T05:11:52;21.15;;;14.70;;
35969;SDS011;22448;51.298;6.430;2022-07-21T05:14:19;21.05;;;15.10;;
35969;SDS011;22448;51.298;6.430;2022-07-21T05:16:46;20.15;;;15.40;;
35969;SDS011;22448;51.298;6.430;2022-07-21T05:19:13;21.90;;;14.77;;
35969;SDS011;22448;51.298;6.430;2022-07-21T05:21:40;20.25;;;14.82;;
35969;SDS011;22448;51.298;6.430;2022-07-21T05:24:07;18.90;;;14.88;;
35969;SDS011;22448;51.298;6.430;2022-07-21T05:26:35;22.98;;;15.23;;
35969;SDS011;22448;51.298;6.430;2022-07-21T05:29:02;23.52;;;14.50;;
35969;SDS011;22448;51.298;6.430;2022-07-21T05:31:29;18.23;;;14.57;;
35969;SDS011;22448;51.298;6.430;2022-07-21T05:33:57;21.95;;;15.07;;
35969;SDS011;22448;51.298;6.430;2022-07-21T05:36:24;21.00;;;14.98;;
35969;SDS011;22448;51.298;6.430;2022-07-21T05:38:51;21.05;;;15.18;;
35969;SDS011;22448;51.298;6.430;2022-07-21T05:41:18;18.65;;;14.52;;
35969;SDS011;22448;51.298;6.430;2022-07-21T05:43:45;20.65;;;14.75;;
35969;SDS011;22448;51.298;6.430;2022-07-21T05:46:12;17.00;;;14.50;;
35969;SDS011;22448;51.298;6.430;2022-07-21T05:48:40;22.83;;;14.48;;
35969;SDS011;22448;51.298;6.430;2022-07-21T05:51:07;25.67;;;15.18;;
35969;SDS011;22448;51.298;6.430;2022-07-21T05:56:06;18.13;;;13.45;;
35969;SDS011;22448;51.298;6.430;2022-07-21T05:58:34;36.95;;;14.75;;
35969;SDS011;22448;51.298;6.430;2022-07-21T06:01:01;19.65;;;13.30;;
35969;SDS011;22448;51.298;6.430;2022-07-21T06:03:35;21.10;;;14.10;;
35969;SDS011;22448;51.298;6.430;2022-07-21T06:06:03;18.40;;;12.93;;
35969;SDS011;22448;51.298;6.430;2022-07-21T06:08:31;20.77;;;12.88;;
35969;SDS011;22448;51.298;6.430;2022-07-21T06:10:58;21.38;;;13.73;;
35969;SDS011;22448;51.298;6.430;2022-07-21T06:13:25;18.10;;;13.30;;
35969;SDS011;22448;51.298;6.430;2022-07-21T06:15:52;17.73;;;12.80;;
35969;SDS011;22448;51.298;6.430;2022-07-21T06:18:19;14.73;;;11.77;;
35969;SDS011;22448;51.298;6.430;2022-07-21T06:20:48;16.33;;;12.15;;
35969;SDS011;22448;51.298;6.430;2022-07-21T06:23:15;15.85;;;11.52;;
35969;SDS011;22448;51.298;6.430;2022-07-21T06:25:43;16.05;;;11.50;;
35969;SDS011;22448;51.298;6.430;2022-07-21T06:28:10;20.88;;;12.43;;
35969;SDS011;22448;51.298;6.430;2022-07-21T06:30:37;16.60;;;10.68;;
35969;SDS011;22448;51.298;6.430;2022-07-21T06:33:04;15.10;;;8.82;;
35969;SDS011;22448;51.298;6.430;2022-07-21T06:35:31;15.10;;;9.02;;
35969;SDS011;22448;51.298;6.430;2022-07-21T06:37:59;11.40;;;8.80;;
35969;SDS011;22448;51.298;6.430;2022-07-21T06:40:26;15.57;;;9.13;;
35969;SDS011;22448;51.298;6.430;2022-07-21T06:42:52;16.42;;;8.95;;
35969;SDS011;22448;51.298;6.430;2022-07-21T06:45:40;14.52;;;9.07;;
35969;SDS011;22448;51.298;6.430;2022-07-21T06:48:07;16.23;;;8.90;;
35969;SDS011;22448;51.298;6.430;2022-07-21T06:50:36;14.07;;;9.25;;
35969;SDS011;22448;51.298;6.430;2022-07-21T06:53:03;15.23;;;9.30;;
35969;SDS011;22448;51.298;6.430;2022-07-21T06:55:31;15.57;;;9.18;;
35969;SDS011;22448;51.298;6.430;2022-07-21T06:58:07;18.73;;;9.70;;
35969;SDS011;22448;51.298;6.430;2022-07-21T07:00:36;18.90;;;9.60;;
35969;SDS011;22448;51.298;6.430;2022-07-21T07:03:05;18.27;;;9.43;;
35969;SDS011;22448;51.298;6.430;2022-07-21T07:05:33;17.52;;;9.88;;
35969;SDS011;22448;51.298;6.430;2022-07-21T07:08:01;16.52;;;9.30;;
35969;SDS011;22448;51.298;6.430;2022-07-21T07:10:28;17.08;;;9.23;;
35969;SDS011;22448;51.298;6.430;2022-07-21T07:12:55;12.18;;;9.18;;
35969;SDS011;22448;51.298;6.430;2022-07-21T07:15:43;14.77;;;8.77;;
35969;SDS011;22448;51.298;6.430;2022-07-21T07:18:10;15.80;;;8.77;;
35969;SDS011;22448;51.298;6.430;2022-07-21T07:20:37;17.92;;;7.90;;
35969;SDS011;22448;51.298;6.430;2022-07-21T07:23:04;14.57;;;7.35;;
35969;SDS011;22448;51.298;6.430;2022-07-21T07:25:32;18.58;;;7.65;;
35969;SDS011;22448;51.298;6.430;2022-07-21T07:27:59;12.70;;;7.30;;
35969;SDS011;22448;51.298;6.430;2022-07-21T07:30:26;20.38;;;7.25;;
35969;SDS011;22448;51.298;6.430;2022-07-21T07:32:53;14.90;;;7.10;;
35969;SDS011;22448;51.298;6.430;2022-07-21T07:35:20;16.80;;;7.78;;
35969;SDS011;22448;51.298;6.430;2022-07-21T07:37:48;18.48;;;8.60;;
35969;SDS011;22448;51.298;6.430;2022-07-21T07:40:17;13.68;;;7.72;;
35969;SDS011;22448;51.298;6.430;2022-07-21T07:42:46;15.45;;;7.63;;
35969;SDS011;22448;51.298;6.430;2022-07-21T07:45:13;14.38;;;7.80;;
35969;SDS011;22448;51.298;6.430;2022-07-21T07:47:41;16.77;;;7.43;;
35969;SDS011;22448;51.298;6.430;2022-07-21T07:50:09;20.23;;;8.00;;
35969;SDS011;22448;51.298;6.430;2022-07-21T07:52:38;16.20;;;6.97;;
35969;SDS011;22448;51.298;6.430;2022-07-21T07:55:07;10.55;;;6.68;;
35969;SDS011;22448;51.298;6.430;2022-07-21T07:57:40;11.57;;;7.15;;
35969;SDS011;22448;51.298;6.430;2022-07-21T08:00:10;13.68;;;6.55;;
35969;SDS011;22448;51.298;6.430;2022-07-21T08:03:00;14.32;;;8.32;;
35969;SDS011;22448;51.298;6.430;2022-07-21T08:05:27;15.05;;;8.48;;
35969;SDS011;22448;51.298;6.430;2022-07-21T08:07:54;15.25;;;7.95;;
35969;SDS011;22448;51.298;6.430;2022-07-21T08:10:21;11.73;;;6.80;;
35969;SDS011;22448;51.298;6.430;2022-07-21T08:13:08;12.07;;;7.60;;
35969;SDS011;22448;51.298;6.430;2022-07-21T08:15:35;15.48;;;7.85;;
35969;SDS011;22448;51.298;6.430;2022-07-21T08:18:04;13.80;;;7.72;;
35969;SDS011;22448;51.298;6.430;2022-07-21T08:20:31;11.15;;;6.80;;
35969;SDS011;22448;51.298;6.430;2022-07-21T08:22:59;14.55;;;7.75;;
35969;SDS011;22448;51.298;6.430;2022-07-21T08:25:26;16.00;;;7.30;;
35969;SDS011;22448;51.298;6.430;2022-07-21T08:27:54;15.48;;;6.55;;
35969;SDS011;22448;51.298;6.430;2022-07-21T08:30:21;15.20;;;7.18;;
35969;SDS011;22448;51.298;6.430;2022-07-21T08:32:56;17.52;;;7.40;;
35969;SDS011;22448;51.298;6.430;2022-07-21T08:35:27;14.10;;;7.07;;
35969;SDS011;22448;51.298;6.430;2022-07-21T08:37:58;19.90;;;7.57;;
35969;SDS011;22448;51.298;6.430;2022-07-21T08:40:31;9.93;;;6.85;;
35969;SDS011;22448;51.298;6.430;2022-07-21T08:43:04;12.40;;;6.57;;
35969;SDS011;22448;51.298;6.430;2022-07-21T08:45:31;11.52;;;7.43;;
35969;SDS011;22448;51.298;6.430;2022-07-21T08:47:59;13.45;;;6.72;;
35969;SDS011;22448;51.298;6.430;2022-07-21T08:50:33;13.55;;;6.15;;
35969;SDS011;22448;51.298;6.430;2022-07-21T08:53:02;13.18;;;7.32;;
35969;SDS011;22448;51.298;6.430;2022-07-21T08:55:33;13.50;;;7.07;;
35969;SDS011;22448;51.298;6.430;2022-07-21T08:58:02;11.63;;;7.13;;
35969;SDS011;22448;51.298;6.430;2022-07-21T09:00:34;12.02;;;6.65;;
35969;SDS011;22448;51.298;6.430;2022-07-21T09:03:09;11.98;;;6.90;;
35969;SDS011;22448;51.298;6.430;2022-07-21T09:06:01;13.73;;;7.20;;
35969;SDS011;22448;51.298;6.430;2022-07-21T09:08:38;14.93;;;7.82;;
35969;SDS011;22448;51.298;6.430;2022-07-21T09:11:22;15.15;;;7.22;;
35969;SDS011;22448;51.298;6.430;2022-07-21T09:14:07;12.32;;;6.68;;
35969;SDS011;22448;51.298;6.430;2022-07-21T09:19:05;15.40;;;7.68;;
35969;SDS011;22448;51.298;6.430;2022-07-21T09:21:33;15.95;;;8.30;;
35969;SDS011;22448;51.298;6.430;2022-07-21T09:24:11;14.48;;;8.23;;
35969;SDS011;22448;51.298;6.430;2022-07-21T09:29:39;15.82;;;8.13;;
35969;SDS011;22448;51.298;6.430;2022-07-21T09:32:15;17.85;;;8.63;;
35969;SDS011;22448;51.298;6.430;2022-07-21T09:34:47;14.93;;;8.63;;
35969;SDS011;22448;51.298;6.430;2022-07-21T09:37:16;17.85;;;8.85;;
35969;SDS011;22448;51.298;6.430;2022-07-21T09:39:51;12.43;;;8.05;;
35969;SDS011;22448;51.298;6.430;2022-07-21T09:42:38;13.60;;;8.75;;
35969;SDS011;22448;51.298;6.430;2022-07-21T09:45:08;22.60;;;11.13;;
35969;SDS011;22448;51.298;6.430;2022-07-21T09:47:40;21.83;;;11.77;;
35969;SDS011;22448;51.298;6.430;2022-07-21T09:50:08;16.10;;;11.27;;
35969;SDS011;22448;51.298;6.430;2022-07-21T09:52:49;19.27;;;11.45;;
35969;SDS011;22448;51.298;6.430;2022-07-21T09:55:20;20.88;;;12.00;;
35969;SDS011;22448;51.298;6.430;2022-07-21T09:57:47;23.17;;;12.43;;
35969;SDS011;22448;51.298;6.430;2022-07-21T10:00:17;21.27;;;12.32;;
35969;SDS011;22448;51.298;6.430;2022-07-21T10:02:46;23.15;;;12.55;;
35969;SDS011;22448;51.298;6.430;2022-07-21T10:05:16;19.60;;;11.68;;
35969;SDS011;22448;51.298;6.430;2022-07-21T10:07:56;20.58;;;11.35;;
35969;SDS011;22448;51.298;6.430;2022-07-21T10:10:27;16.17;;;10.93;;
35969;SDS011;22448;51.298;6.430;2022-07-21T10:13:14;18.80;;;9.35;;
35969;SDS011;22448;51.298;6.430;2022-07-21T10:15:44;18.52;;;10.20;;
35969;SDS011;22448;51.298;6.430;2022-07-21T10:18:13;13.45;;;9.30;;
35969;SDS011;22448;51.298;6.430;2022-07-21T10:20:43;16.30;;;10.35;;
35969;SDS011;22448;51.298;6.430;2022-07-21T10:23:21;21.13;;;9.95;;
35969;SDS011;22448;51.298;6.430;2022-07-21T10:25:55;23.83;;;10.40;;
35969;SDS011;22448;51.298;6.430;2022-07-21T10:28:23;18.60;;;10.73;;
35969;SDS011;22448;51.298;6.430;2022-07-21T10:30:51;18.77;;;10.82;;
35969;SDS011;22448;51.298;6.430;2022-07-21T10:33:49;16.92;;;10.48;;
35969;SDS011;22448;51.298;6.430;2022-07-21T10:36:11;15.48;;;10.45;;
35969;SDS011;22448;51.298;6.430;2022-07-21T10:41:36;17.67;;;13.05;;
35969;SDS011;22448;51.298;6.430;2022-07-21T10:44:40;19.08;;;13.63;;
35969;SDS011;22448;51.298;6.430;2022-07-21T10:47:03;21.02;;;14.30;;
35969;SDS011;22448;51.298;6.430;2022-07-21T10:57:42;25.33;;;14.48;;
35969;SDS011;22448;51.298;6.430;2022-07-21T11:02:48;20.10;;;15.85;;
35969;SDS011;22448;51.298;6.430;2022-07-21T11:05:24;21.40;;;15.30;;
35969;SDS011;22448;51.298;6.430;2022-07-21T11:21:54;22.00;;;17.73;;
35969;SDS011;22448;51.298;6.430;2022-07-21T11:24:23;25.27;;;15.68;;
35969;SDS011;22448;51.298;6.430;2022-07-21T11:26:58;20.48;;;15.15;;
35969;SDS011;22448;51.298;6.430;2022-07-21T11:29:28;20.00;;;15.82;;
35969;SDS011;22448;51.298;6.430;2022-07-21T11:31:56;18.88;;;14.45;;
35969;SDS011;22448;51.298;6.430;2022-07-21T11:34:25;20.10;;;14.57;;
35969;SDS011;22448;51.298;6.430;2022-07-21T11:37:02;20.30;;;13.88;;
35969;SDS011;22448;51.298;6.430;2022-07-21T11:39:49;17.80;;;12.55;;
35969;SDS011;22448;51.298;6.430;2022-07-21T11:42:16;15.95;;;11.93;;
35969;SDS011;22448;51.298;6.430;2022-07-21T11:44:43;14.02;;;11.07;;
35969;SDS011;22448;51.298;6.430;2022-07-21T11:47:11;17.05;;;10.13;;
35969;SDS011;22448;51.298;6.430;2022-07-21T11:49:40;13.23;;;9.55;;
35969;SDS011;22448;51.298;6.430;2022-07-21T11:52:15;10.32;;;8.05;;
35969;SDS011;22448;51.298;6.430;2022-07-21T11:54:45;10.85;;;8.15;;
35969;SDS011;22448;51.298;6.430;2022-07-21T11:57:15;9.30;;;7.55;;
35969;SDS011;22448;51.298;6.430;2022-07-21T11:59:44;8.38;;;7.13;;
35969;SDS011;22448;51.298;6.430;2022-07-21T12:02:12;9.63;;;7.05;;
35969;SDS011;22448;51.298;6.430;2022-07-21T12:04:59;7.65;;;6.75;;
35969;SDS011;22448;51.298;6.430;2022-07-21T12:07:29;6.50;;;5.75;;
35969;SDS011;22448;51.298;6.430;2022-07-21T12:10:13;9.27;;;6.32;;
35969;SDS011;22448;51.298;6.430;2022-07-21T12:12:47;6.72;;;6.03;;
35969;SDS011;22448;51.298;6.430;2022-07-21T12:15:20;5.85;;;5.25;;
35969;SDS011;22448;51.298;6.430;2022-07-21T12:18:02;6.43;;;5.10;;
35969;SDS011;22448;51.298;6.430;2022-07-21T12:20:32;5.60;;;4.80;;
35969;SDS011;22448;51.298;6.430;2022-07-21T12:23:19;5.97;;;4.43;;
35969;SDS011;22448;51.298;6.430;2022-07-21T12:25:55;6.50;;;5.60;;
35969;SDS011;22448;51.298;6.430;2022-07-21T12:31:15;7.78;;;6.70;;
35969;SDS011;22448;51.298;6.430;2022-07-21T12:33:52;10.07;;;8.70;;
35969;SDS011;22448;51.298;6.430;2022-07-21T12:36:42;13.85;;;11.05;;
35969;SDS011;22448;51.298;6.430;2022-07-21T12:42:06;15.55;;;13.15;;
35969;SDS011;22448;51.298;6.430;2022-07-21T12:44:34;17.33;;;13.95;;
35969;SDS011;22448;51.298;6.430;2022-07-21T12:47:15;18.10;;;14.30;;
35969;SDS011;22448;51.298;6.430;2022-07-21T12:50:03;20.70;;;16.17;;
35969;SDS011;22448;51.298;6.430;2022-07-21T12:52:48;20.05;;;16.13;;
35969;SDS011;22448;51.298;6.430;2022-07-21T12:55:15;20.25;;;16.92;;
35969;SDS011;22448;51.298;6.430;2022-07-21T12:57:42;22.08;;;16.42;;
35969;SDS011;22448;51.298;6.430;2022-07-21T13:00:09;20.20;;;15.02;;
35969;SDS011;22448;51.298;6.430;2022-07-21T13:02:47;18.00;;;15.00;;
35969;SDS011;22448;51.298;6.430;2022-07-21T13:05:20;21.25;;;15.45;;
35969;SDS011;22448;51.298;6.430;2022-07-21T13:07:47;18.38;;;14.77;;
35969;SDS011;22448;51.298;6.430;2022-07-21T13:10:15;16.92;;;14.38;;
35969;SDS011;22448;51.298;6.430;2022-07-21T13:12:42;19.45;;;13.95;;
35969;SDS011;22448;51.298;6.430;2022-07-21T13:15:09;21.33;;;14.77;;
35969;SDS011;22448;51.298;6.430;2022-07-21T13:17:37;20.38;;;14.18;;
35969;SDS011;22448;51.298;6.430;2022-07-21T13:20:04;19.75;;;14.63;;
35969;SDS011;22448;51.298;6.430;2022-07-21T13:22:33;19.58;;;13.80;;
35969;SDS011;22448;51.298;6.430;2022-07-21T13:25:01;19.98;;;13.88;;
35969;SDS011;22448;51.298;6.430;2022-07-21T13:27:28;17.02;;;13.50;;
35969;SDS011;22448;51.298;6.430;2022-07-21T13:29:55;18.90;;;14.07;;
35969;SDS011;22448;51.298;6.430;2022-07-21T13:32:22;20.15;;;13.07;;
35969;SDS011;22448;51.298;6.430;2022-07-21T13:34:49;20.73;;;15.20;;
35969;SDS011;22448;51.298;6.430;2022-07-21T13:37:36;24.92;;;15.77;;
35969;SDS011;22448;51.298;6.430;2022-07-21T13:40:04;20.63;;;16.25;;
35969;SDS011;22448;51.298;6.430;2022-07-21T13:42:52;15.85;;;12.35;;
35969;SDS011;22448;51.298;6.430;2022-07-21T13:45:39;13.77;;;11.32;;
35969;SDS011;22448;51.298;6.430;2022-07-21T13:48:06;13.88;;;11.48;;
35969;SDS011;22448;51.298;6.430;2022-07-21T13:50:33;12.88;;;10.40;;
35969;SDS011;22448;51.298;6.430;2022-07-21T13:53:00;13.88;;;9.65;;
35969;SDS011;22448;51.298;6.430;2022-07-21T13:55:27;11.27;;;8.82;;
35969;SDS011;22448;51.298;6.430;2022-07-21T13:57:54;13.45;;;9.75;;
35969;SDS011;22448;51.298;6.430;2022-07-21T14:00:21;15.30;;;9.32;;
35969;SDS011;22448;51.298;6.430;2022-07-21T14:02:48;14.07;;;9.23;;
35969;SDS011;22448;51.298;6.430;2022-07-21T14:05:15;15.10;;;9.10;;
35969;SDS011;22448;51.298;6.430;2022-07-21T14:07:42;13.73;;;8.77;;
35969;SDS011;22448;51.298;6.430;2022-07-21T14:10:09;11.80;;;7.22;;
35969;SDS011;22448;51.298;6.430;2022-07-21T14:12:37;9.77;;;7.68;;
35969;SDS011;22448;51.298;6.430;2022-07-21T14:15:08;7.93;;;6.65;;
35969;SDS011;22448;51.298;6.430;2022-07-21T14:17:37;8.13;;;6.50;;
35969;SDS011;22448;51.298;6.430;2022-07-21T14:20:04;8.93;;;6.80;;
35969;SDS011;22448;51.298;6.430;2022-07-21T14:22:31;9.73;;;6.75;;
35969;SDS011;22448;51.298;6.430;2022-07-21T14:24:58;9.70;;;6.70;;
35969;SDS011;22448;51.298;6.430;2022-07-21T14:27:47;9.52;;;6.88;;
35969;SDS011;22448;51.298;6.430;2022-07-21T14:30:16;11.63;;;6.78;;
35969;SDS011;22448;51.298;6.430;2022-07-21T14:32:44;8.40;;;6.78;;
35969;SDS011;22448;51.298;6.430;2022-07-21T14:35:11;9.23;;;7.60;;
35969;SDS011;22448;51.298;6.430;2022-07-21T14:37:41;10.57;;;7.93;;
35969;SDS011;22448;51.298;6.430;2022-07-21T14:40:09;11.05;;;7.18;;
35969;SDS011;22448;51.298;6.430;2022-07-21T14:42:36;7.35;;;6.65;;
35969;SDS011;22448;51.298;6.430;2022-07-21T14:45:04;9.98;;;7.28;;
35969;SDS011;22448;51.298;6.430;2022-07-21T14:47:39;9.90;;;7.80;;
35969;SDS011;22448;51.298;6.430;2022-07-21T14:50:06;9.10;;;7.00;;
35969;SDS011;22448;51.298;6.430;2022-07-21T14:52:33;10.27;;;8.30;;
35969;SDS011;22448;51.298;6.430;2022-07-21T14:55:00;8.25;;;7.40;;
35969;SDS011;22448;51.298;6.430;2022-07-21T14:57:27;8.80;;;7.20;;
35969;SDS011;22448;51.298;6.430;2022-07-21T14:59:54;9.38;;;7.72;;
35969;SDS011;22448;51.298;6.430;2022-07-21T15:02:21;8.48;;;7.57;;
35969;SDS011;22448;51.298;6.430;2022-07-21T15:04:48;9.32;;;7.13;;
35969;SDS011;22448;51.298;6.430;2022-07-21T15:07:16;10.07;;;7.43;;
35969;SDS011;22448;51.298;6.430;2022-07-21T15:09:43;11.57;;;7.78;;
35969;SDS011;22448;51.298;6.430;2022-07-21T15:12:10;9.40;;;7.03;;
35969;SDS011;22448;51.298;6.430;2022-07-21T15:14:38;9.50;;;6.65;;
35969;SDS011;22448;51.298;6.430;2022-07-21T15:17:05;7.97;;;6.45;;
35969;SDS011;22448;51.298;6.430;2022-07-21T15:19:32;8.82;;;6.90;;
35969;SDS011;22448;51.298;6.430;2022-07-21T15:21:59;8.48;;;7.57;;
35969;SDS011;22448;51.298;6.430;2022-07-21T15:24:28;9.63;;;7.93;;
35969;SDS011;22448;51.298;6.430;2022-07-21T15:26:55;13.63;;;7.80;;